Time;durP1;ratioP1;P1;durP2;ratioP2;P2;SDS_P1;SDS_P2;PMS_P1;PMS_P2;Temp;Humidity;BMP_temperature;BMP_pressure;BME280_temperature;BME280_humidity;BME280_pressure;Samples;Min_cycle;Max_cycle;Signal;HPM_P1;HPM_P2
2023/03/30 00:01:55;;;;;;;9.13;3.60;;;;;;;17.73;49.72;100547.94;5041730;28;20033;-42
2023/03/30 00:04:21;;;;;;;12.43;3.70;;;;;;;17.89;49.70;100552.88;5042782;28;20036;-42
2023/03/30 00:06:47;;;;;;;6.30;3.10;;;;;;;17.84;49.53;100561.75;5038910;28;20037;-45
2023/03/30 00:09:13;;;;;;;10.23;3.25;;;;;;;17.52;50.10;100550.97;5066524;22;20042;-41
2023/03/30 00:11:38;;;;;;;9.98;3.33;;;;;;;17.51;50.59;100538.69;5059643;28;20035;-44
2023/03/30 00:14:04;;;;;;;14.93;3.60;;;;;;;17.45;50.62;100544.06;5062756;28;20032;-47
2023/03/30 00:16:30;;;;;;;12.15;3.30;;;;;;;17.66;50.41;100538.41;5063197;28;20082;-41
2023/03/30 00:18:56;;;;;;;10.93;3.20;;;;;;;17.59;50.45;100539.41;5065624;28;20448;-44
2023/03/30 00:21:21;;;;;;;10.13;3.20;;;;;;;17.57;50.57;100546.47;5037268;28;20452;-41
2023/03/30 00:23:47;;;;;;;8.98;3.40;;;;;;;17.48;50.91;100551.94;5045558;28;20479;-42
2023/03/30 00:26:13;;;;;;;12.63;3.60;;;;;;;17.30;51.34;100553.16;5038762;28;20090;-45
2023/03/30 00:28:39;;;;;;;9.00;3.28;;;;;;;17.37;51.76;100560.06;5035727;28;20040;-43
2023/03/30 00:31:04;;;;;;;7.25;3.03;;;;;;;17.44;51.42;100553.75;5030908;28;20039;-43
2023/03/30 00:33:30;;;;;;;10.38;3.45;;;;;;;17.42;51.75;100557.31;5039956;28;20029;-41
2023/03/30 00:35:57;;;;;;;9.90;3.00;;;;;;;17.50;51.50;100555.41;5035538;28;20057;-41
2023/03/30 00:38:24;;;;;;;8.27;3.20;;;;;;;17.35;52.20;100553.94;5042426;28;20033;-41
2023/03/30 00:40:51;;;;;;;10.02;2.97;;;;;;;17.51;52.18;100540.44;5041122;28;20037;-40
2023/03/30 00:43:17;;;;;;;9.38;3.25;;;;;;;17.36;52.83;100542.50;5043111;28;20060;-41
2023/03/30 00:45:42;;;;;;;8.70;2.90;;;;;;;17.18;53.28;100536.72;5039827;28;20032;-42
2023/03/30 00:48:17;;;;;;;9.93;2.90;;;;;;;17.44;52.59;100534.47;5043701;28;20082;-45
2023/03/30 00:50:53;;;;;;;8.38;3.03;;;;;;;17.38;53.34;100535.41;5057733;28;20465;-41
2023/03/30 00:53:26;;;;;;;9.80;2.60;;;;;;;17.31;53.46;100540.88;5062841;28;20072;-42
2023/03/30 00:55:53;;;;;;;11.18;3.20;;;;;;;17.01;53.82;100544.94;5059480;28;20170;-41
2023/03/30 00:58:20;;;;;;;10.38;2.97;;;;;;;17.11;54.06;100543.88;5062206;28;20037;-42
2023/03/30 01:00:46;;;;;;;10.23;3.03;;;;;;;17.22;53.64;100543.66;5057940;28;20501;-40
2023/03/30 01:03:33;;;;;;;8.13;2.72;;;;;;;17.19;53.83;100527.94;5063001;28;20066;-41
2023/03/30 01:06:02;;;;;;;6.80;2.70;;;;;;;17.13;54.70;100531.56;5058923;28;20082;-40
2023/03/30 01:08:31;;;;;;;10.15;2.60;;;;;;;17.01;55.60;100532.66;5062635;28;20028;-41
2023/03/30 01:11:00;;;;;;;8.70;2.58;;;;;;;17.46;54.40;100530.00;5059156;28;20055;-40
2023/03/30 01:13:29;;;;;;;9.13;2.60;;;;;;;17.26;55.07;100522.50;5063047;28;20036;-40
2023/03/30 01:16:04;;;;;;;9.32;2.63;;;;;;;17.07;55.86;100515.88;5058919;28;20048;-41
2023/03/30 01:18:46;;;;;;;8.50;2.60;;;;;;;17.04;55.64;100503.59;5062662;28;20039;-43
2023/03/30 01:21:39;;;;;;;9.85;2.70;;;;;;;16.99;56.22;100512.50;5057635;28;20032;-40
2023/03/30 01:24:30;;;;;;;6.28;2.45;;;;;;;17.17;55.74;100506.88;5059125;28;20082;-40
2023/03/30 01:27:03;;;;;;;13.02;2.40;;;;;;;16.71;57.21;100517.38;5059019;28;20040;-41
2023/03/30 01:30:02;;;;;;;9.57;2.20;;;;;;;17.27;55.86;100508.41;5062717;28;20025;-40
2023/03/30 01:32:43;;;;;;;9.77;2.53;;;;;;;16.99;56.86;100504.59;5057636;28;20032;-42
2023/03/30 01:35:18;;;;;;;14.82;2.92;;;;;;;17.01;57.22;100508.06;5059544;28;20111;-40
2023/03/30 01:38:02;;;;;;;9.88;3.13;;;;;;;17.09;57.38;100503.50;5060480;28;20068;-40
2023/03/30 01:41:06;;;;;;;13.02;2.95;;;;;;;17.04;57.43;100485.16;5063422;28;20040;-42
2023/03/30 01:43:45;;;;;;;8.23;2.42;;;;;;;17.10;57.66;100484.19;4998288;28;20069;-40
2023/03/30 01:46:16;;;;;;;9.52;2.92;;;;;;;16.86;58.17;100484.66;5053246;28;20515;-48
2023/03/30 01:48:51;;;;;;;11.00;2.65;;;;;;;17.44;56.91;100477.31;5064857;28;20043;-42
2023/03/30 01:51:22;;;;;;;12.20;2.80;;;;;;;16.72;58.80;100494.53;5065088;28;20025;-42
2023/03/30 01:54:00;;;;;;;12.48;2.85;;;;;;;16.70;59.00;100491.09;5060729;28;20068;-41
2023/03/30 01:56:39;;;;;;;9.85;2.90;;;;;;;17.07;57.93;100488.66;5067056;28;20043;-40
2023/03/30 01:59:15;;;;;;;8.68;2.60;;;;;;;17.00;57.97;100498.44;5061797;28;20059;-42
2023/03/30 02:01:49;;;;;;;7.13;2.53;;;;;;;17.05;58.21;100504.47;5058326;28;20509;-40
2023/03/30 02:04:18;;;;;;;5.45;2.50;;;;;;;16.71;59.34;100509.47;5062072;28;20044;-41
2023/03/30 02:06:57;;;;;;;8.57;2.42;;;;;;;16.50;60.10;100501.91;5058032;28;20032;-41
2023/03/30 02:09:25;;;;;;;10.65;2.72;;;;;;;16.87;59.10;100503.06;5060540;28;20048;-41
2023/03/30 02:11:52;;;;;;;12.77;2.90;;;;;;;16.75;59.98;100495.38;5057644;28;20684;-41
2023/03/30 02:14:23;;;;;;;10.35;2.70;;;;;;;16.54;60.33;100501.84;5061669;28;20052;-44
2023/03/30 02:16:54;;;;;;;10.82;2.50;;;;;;;16.71;59.99;100504.19;5056955;28;20043;-40
2023/03/30 02:19:20;;;;;;;8.35;2.60;;;;;;;16.82;59.74;100506.66;5061566;28;20488;-41
2023/03/30 02:21:46;;;;;;;7.60;2.58;;;;;;;17.11;59.21;100499.09;5058620;28;20059;-41
2023/03/30 02:24:17;;;;;;;8.77;2.45;;;;;;;16.99;59.82;100499.31;5061359;28;20033;-45
2023/03/30 02:26:47;;;;;;;9.18;2.67;;;;;;;16.63;61.27;100491.19;5064397;28;20367;-42
2023/03/30 02:29:14;;;;;;;9.60;2.50;;;;;;;16.58;62.09;100492.16;5067604;28;20036;-41
2023/03/30 02:31:42;;;;;;;10.25;2.90;;;;;;;17.09;60.32;100490.34;5061777;28;20043;-40
2023/03/30 02:34:37;;;;;;;11.10;2.78;;;;;;;16.79;61.00;100464.59;5061632;28;20028;-42
2023/03/30 02:37:14;;;;;;;8.60;2.33;;;;;;;16.36;62.75;100486.34;5054219;28;20040;-43
2023/03/30 02:40:11;;;;;;;10.30;2.42;;;;;;;16.67;62.04;100486.75;5039357;28;20051;-40
2023/03/30 02:42:49;;;;;;;9.05;2.58;;;;;;;16.89;61.13;100476.72;5039497;28;20594;-41
2023/03/30 02:45:33;;;;;;;7.80;2.33;;;;;;;16.66;61.97;100485.00;5041566;28;20083;-41
2023/03/30 02:48:21;;;;;;;10.02;2.35;;;;;;;16.52;62.22;100479.97;5058257;28;20037;-40
2023/03/30 02:51:05;;;;;;;7.18;2.00;;;;;;;16.92;61.42;100482.78;5058327;28;20037;-41
2023/03/30 02:53:36;;;;;;;9.82;2.70;;;;;;;16.96;60.67;100473.03;5061663;28;20040;-41
2023/03/30 02:56:29;;;;;;;5.50;1.98;;;;;;;16.87;60.90;100473.22;5056865;28;20064;-43
2023/03/30 02:59:04;;;;;;;7.93;2.22;;;;;;;16.79;61.31;100465.47;5047219;28;20033;-41
2023/03/30 03:01:40;;;;;;;9.10;2.30;;;;;;;16.47;62.17;100470.38;5062416;28;20036;-42
2023/03/30 03:04:06;;;;;;;8.23;2.28;;;;;;;16.91;60.89;100461.72;5059003;28;20043;-40
2023/03/30 03:06:32;;;;;;;6.32;2.40;;;;;;;17.04;60.62;100468.50;5062533;28;20043;-41
2023/03/30 03:08:58;;;;;;;8.60;2.20;;;;;;;16.90;60.84;100468.75;5059236;28;20036;-41
2023/03/30 03:11:24;;;;;;;7.07;2.38;;;;;;;16.71;61.24;100459.44;5060925;28;20028;-40
2023/03/30 03:13:50;;;;;;;6.63;2.55;;;;;;;17.03;60.44;100472.03;5057172;28;20033;-40
2023/03/30 03:16:16;;;;;;;6.72;2.33;;;;;;;16.65;61.30;100461.38;5061525;28;20033;-41
2023/03/30 03:18:41;;;;;;;10.50;2.55;;;;;;;17.05;60.21;100464.97;5056703;28;20040;-43
2023/03/30 03:21:08;;;;;;;6.82;2.30;;;;;;;16.59;61.49;100459.63;5061536;28;20040;-44
2023/03/30 03:23:35;;;;;;;4.97;2.22;;;;;;;16.75;60.85;100455.03;5058054;28;20394;-50
2023/03/30 03:26:01;;;;;;;9.52;2.42;;;;;;;16.36;61.80;100449.53;5059501;28;20064;-41
2023/03/30 03:28:27;;;;;;;7.95;2.13;;;;;;;16.54;61.69;100464.13;5060375;28;20427;-41
2023/03/30 03:30:53;;;;;;;9.80;2.40;;;;;;;16.29;62.42;100453.16;5056522;28;20032;-41
2023/03/30 03:33:21;;;;;;;7.78;2.40;;;;;;;16.50;61.30;100442.28;5060602;28;20056;-41
2023/03/30 03:35:47;;;;;;;10.93;2.30;;;;;;;16.61;61.04;100450.00;5056917;28;20086;-40
2023/03/30 03:38:13;;;;;;;10.13;2.50;;;;;;;16.24;62.36;100460.25;5058688;28;20060;-41
2023/03/30 03:40:39;;;;;;;8.90;2.10;;;;;;;16.30;61.92;100457.53;5056176;28;20033;-41
2023/03/30 03:43:05;;;;;;;9.50;2.35;;;;;;;16.26;62.24;100447.94;5058525;28;20041;-41
2023/03/30 03:45:30;;;;;;;8.23;1.90;;;;;;;16.35;62.13;100446.91;5058837;28;20032;-41
2023/03/30 03:47:55;;;;;;;13.38;2.40;;;;;;;16.30;61.91;100454.88;5056266;28;20290;-41
2023/03/30 03:50:21;;;;;;;12.32;2.50;;;;;;;16.21;62.30;100448.03;5060466;28;20554;-41
2023/03/30 03:52:46;;;;;;;13.10;2.45;;;;;;;16.16;62.90;100454.28;5056591;28;20475;-47
2023/03/30 03:55:12;;;;;;;14.15;2.55;;;;;;;16.32;62.28;100445.22;5060477;28;20037;-41
2023/03/30 03:57:38;;;;;;;13.52;2.45;;;;;;;16.72;60.95;100450.66;5055804;28;20066;-41
2023/03/30 04:00:14;;;;;;;10.30;2.33;;;;;;;16.30;62.29;100448.75;5059697;28;20038;-42
2023/03/30 04:02:42;;;;;;;10.95;2.22;;;;;;;16.18;62.53;100445.44;5054766;28;20036;-41
2023/03/30 04:05:08;;;;;;;10.05;2.55;;;;;;;15.93;63.29;100437.94;5060036;28;20123;-41
2023/03/30 04:07:34;;;;;;;10.55;2.30;;;;;;;16.06;63.33;100450.91;5059724;28;20116;-43
2023/03/30 04:10:00;;;;;;;13.65;2.60;;;;;;;16.17;63.13;100442.81;5056066;28;20078;-40
2023/03/30 04:12:28;;;;;;;12.32;2.60;;;;;;;16.26;62.69;100433.94;5060286;28;20029;-41
2023/03/30 04:14:53;;;;;;;15.48;2.83;;;;;;;15.87;64.23;100454.69;5058910;28;20047;-43
2023/03/30 04:17:22;;;;;;;15.25;2.85;;;;;;;15.97;64.12;100450.19;5064563;28;20048;-41
2023/03/30 04:19:52;;;;;;;12.98;2.67;;;;;;;15.63;65.34;100452.41;5060554;28;20136;-43
2023/03/30 04:22:18;;;;;;;12.05;2.60;;;;;;;15.52;66.49;100462.19;5064480;28;20040;-41
2023/03/30 04:24:44;;;;;;;12.40;2.70;;;;;;;15.41;67.54;100455.31;5060200;28;20037;-41
2023/03/30 04:27:13;;;;;;;13.25;2.72;;;;;;;15.61;66.50;100452.47;5064720;28;20161;-41
2023/03/30 04:29:39;;;;;;;17.00;2.72;;;;;;;16.04;65.29;100452.66;5062295;28;20040;-44
2023/03/30 04:32:05;;;;;;;14.63;2.90;;;;;;;15.92;65.93;100444.97;5064945;28;20036;-42
2023/03/30 04:34:31;;;;;;;12.27;2.55;;;;;;;15.57;67.08;100450.75;5065662;28;20040;-41
2023/03/30 04:36:57;;;;;;;16.30;2.80;;;;;;;15.55;67.28;100446.41;5061511;28;20043;-41
2023/03/30 04:39:23;;;;;;;14.02;3.10;;;;;;;15.52;66.79;100452.56;5065106;28;20397;-41
2023/03/30 04:41:50;;;;;;;17.85;3.33;;;;;;;15.52;67.19;100444.69;5060012;28;20086;-45
2023/03/30 04:44:19;;;;;;;13.57;2.83;;;;;;;15.25;67.91;100430.13;5063300;28;20439;-40
2023/03/30 04:46:44;;;;;;;15.05;3.10;;;;;;;14.92;68.74;100423.53;5058939;28;20102;-40
2023/03/30 04:49:10;;;;;;;16.52;3.25;;;;;;;15.03;68.25;100421.66;5063675;28;20513;-40
2023/03/30 04:51:36;;;;;;;17.60;2.75;;;;;;;14.90;68.07;100422.69;5058921;28;20486;-41
2023/03/30 04:54:02;;;;;;;11.65;2.35;;;;;;;14.77;67.97;100422.81;5062817;28;20028;-42
2023/03/30 04:56:27;;;;;;;16.30;2.92;;;;;;;14.75;68.05;100425.47;5062955;28;20115;-40
2023/03/30 04:58:52;;;;;;;17.02;2.60;;;;;;;14.91;67.03;100405.19;5058211;28;20120;-39
2023/03/30 05:01:18;;;;;;;13.98;2.45;;;;;;;14.97;66.42;100416.47;5062930;28;20064;-43
2023/03/30 05:03:43;;;;;;;15.60;2.80;;;;;;;15.21;65.29;100412.66;5058253;28;20032;-40
2023/03/30 05:06:10;;;;;;;17.30;3.13;;;;;;;15.07;65.68;100408.47;5063735;28;20036;-39
2023/03/30 05:08:35;;;;;;;16.35;3.00;;;;;;;14.94;66.13;100419.13;5059025;28;20028;-38
2023/03/30 05:11:03;;;;;;;17.40;2.88;;;;;;;15.08;65.51;100424.22;5062182;28;20032;-39
2023/03/30 05:13:29;;;;;;;15.68;2.42;;;;;;;15.22;64.83;100416.16;5062865;28;20088;-39
2023/03/30 05:15:55;;;;;;;18.10;2.67;;;;;;;14.69;66.23;100411.56;5059962;28;20124;-39
2023/03/30 05:18:21;;;;;;;15.40;2.97;;;;;;;14.76;66.34;100419.31;5063648;28;20079;-38
2023/03/30 05:20:47;;;;;;;17.05;2.83;;;;;;;14.76;66.36;100423.72;5062352;28;20037;-38
2023/03/30 05:23:12;;;;;;;18.48;2.60;;;;;;;14.48;67.73;100429.25;5065732;28;20028;-42
2023/03/30 05:25:37;;;;;;;16.83;3.22;;;;;;;14.43;67.63;100431.03;5058389;28;20128;-39
2023/03/30 05:28:03;;;;;;;15.55;2.85;;;;;;;14.58;67.11;100428.25;5063179;28;20020;-40
2023/03/30 05:30:29;;;;;;;18.27;2.92;;;;;;;14.53;67.58;100448.44;5063052;28;20078;-39
2023/03/30 05:32:55;;;;;;;15.20;2.67;;;;;;;14.38;68.53;100445.09;5059198;28;20028;-39
2023/03/30 05:35:20;;;;;;;19.27;3.10;;;;;;;14.34;68.82;100445.94;5064147;28;20024;-39
2023/03/30 05:37:47;;;;;;;16.48;3.13;;;;;;;14.62;67.35;100450.09;5060726;28;20040;-40
2023/03/30 05:40:13;;;;;;;16.10;3.20;;;;;;;14.28;69.17;100446.88;5064611;28;20029;-39
2023/03/30 05:42:38;;;;;;;23.27;3.50;;;;;;;14.34;68.89;100451.19;5061374;28;20029;-39
2023/03/30 05:45:04;;;;;;;16.20;2.95;;;;;;;14.55;68.35;100448.41;5064766;28;20047;-41
2023/03/30 05:47:29;;;;;;;18.80;3.17;;;;;;;13.97;69.89;100461.09;5064175;28;20056;-41
2023/03/30 05:49:55;;;;;;;19.42;3.22;;;;;;;14.29;68.68;100456.47;5058520;28;20055;-39
2023/03/30 05:52:21;;;;;;;19.63;3.03;;;;;;;14.45;68.63;100467.75;5062671;28;20028;-38
2023/03/30 05:54:46;;;;;;;14.77;3.28;;;;;;;14.56;67.61;100458.03;5057762;28;20033;-40
2023/03/30 05:57:12;;;;;;;15.23;3.22;;;;;;;14.56;67.81;100474.66;5060833;28;20035;-41
2023/03/30 05:59:38;;;;;;;17.13;3.25;;;;;;;14.87;67.33;100462.09;5055559;28;20486;-42
2023/03/30 06:02:05;;;;;;;17.00;2.80;;;;;;;15.07;66.62;100459.22;5062258;28;20028;-38
2023/03/30 06:04:31;;;;;;;19.35;3.30;;;;;;;14.37;68.71;100473.06;5062028;28;20079;-40
2023/03/30 06:06:56;;;;;;;15.20;3.10;;;;;;;14.41;68.18;100476.50;5061988;28;20059;-41
2023/03/30 06:09:22;;;;;;;19.95;3.33;;;;;;;14.55;68.04;100474.66;5098910;22;20111;-42
2023/03/30 06:11:48;;;;;;;20.02;3.13;;;;;;;14.57;67.81;100475.53;5089122;28;20065;-42
2023/03/30 06:14:13;;;;;;;20.23;3.33;;;;;;;14.49;68.50;100485.19;5092881;28;20032;-42
2023/03/30 06:16:38;;;;;;;20.95;3.63;;;;;;;14.89;67.11;100476.03;5087494;28;20072;-41
2023/03/30 06:19:04;;;;;;;19.67;3.42;;;;;;;14.60;67.81;100486.84;5089763;28;20140;-40
2023/03/30 06:21:29;;;;;;;19.23;3.17;;;;;;;14.85;66.73;100484.84;5087453;28;20039;-42
2023/03/30 06:23:55;;;;;;;20.25;3.20;;;;;;;14.66;67.51;100487.66;5081995;28;20048;-39
2023/03/30 06:26:20;;;;;;;20.48;3.30;;;;;;;14.33;68.56;100494.94;5088286;28;20383;-40
2023/03/30 06:28:46;;;;;;;21.55;3.53;;;;;;;14.40;68.10;100499.25;5083340;28;20047;-42
2023/03/30 06:31:11;;;;;;;21.13;3.28;;;;;;;14.46;68.38;100496.56;5087917;28;20111;-40
2023/03/30 06:33:37;;;;;;;22.35;3.55;;;;;;;14.62;67.36;100497.31;5083139;28;20386;-41
2023/03/30 06:36:03;;;;;;;20.92;3.58;;;;;;;14.84;67.27;100497.97;5085563;28;20036;-40
2023/03/30 06:38:29;;;;;;;20.80;3.08;;;;;;;14.77;66.87;100505.03;5087103;28;20501;-40
2023/03/30 06:40:54;;;;;;;23.50;3.58;;;;;;;14.85;66.51;100510.22;5083839;28;20119;-42
2023/03/30 06:43:22;;;;;;;23.00;3.10;;;;;;;14.83;66.16;100519.84;5085943;28;20402;-41
2023/03/30 06:45:54;;;;;;;23.33;3.40;;;;;;;15.15;65.87;100507.28;5082694;28;20386;-42
2023/03/30 06:48:22;;;;;;;22.52;4.35;;;;;;;15.01;65.74;100510.03;5087215;28;20091;-44
2023/03/30 06:50:48;;;;;;;21.63;3.15;;;;;;;15.47;64.91;100512.16;5082990;28;20059;-41
2023/03/30 06:53:14;;;;;;;15.93;3.17;;;;;;;15.91;63.42;100514.25;5083425;28;20063;-40
2023/03/30 06:55:40;;;;;;;21.15;3.20;;;;;;;15.97;62.66;100513.28;5079079;28;20414;-40
2023/03/30 06:58:06;;;;;;;22.95;3.50;;;;;;;16.02;62.10;100508.81;5086116;28;20031;-40
2023/03/30 07:00:31;;;;;;;25.88;4.00;;;;;;;15.82;63.46;100511.72;5085464;28;20032;-40
2023/03/30 07:02:56;;;;;;;23.08;4.63;;;;;;;16.07;61.68;100521.00;5081814;28;20036;-42
2023/03/30 07:05:27;;;;;;;25.98;4.00;;;;;;;16.21;61.30;100518.19;5085254;28;20028;-41
2023/03/30 07:07:53;;;;;;;22.92;4.00;;;;;;;16.44;60.69;100509.91;5078895;28;20062;-41
2023/03/30 07:10:18;;;;;;;21.67;3.40;;;;;;;16.04;61.83;100523.66;5086203;28;20452;-40
2023/03/30 07:12:44;;;;;;;30.90;3.95;;;;;;;16.50;60.46;100522.97;5082446;28;20512;-41
2023/03/30 07:15:10;;;;;;;26.05;3.83;;;;;;;16.87;58.50;100529.38;5082472;28;20032;-44
2023/03/30 07:17:36;;;;;;;26.48;3.97;;;;;;;17.06;57.92;100527.28;5079267;28;20024;-41
2023/03/30 07:20:03;;;;;;;26.83;4.70;;;;;;;15.96;60.16;100548.34;5081883;28;20032;-40
2023/03/30 07:22:29;;;;;;;23.58;4.05;;;;;;;16.49;59.80;100537.00;5082387;28;20035;-40
2023/03/30 07:24:54;;;;;;;24.58;3.80;;;;;;;16.02;59.79;100545.63;5078292;28;20123;-41
2023/03/30 07:27:19;;;;;;;22.08;3.65;;;;;;;15.80;61.02;100534.53;5081740;28;20350;-44
2023/03/30 07:29:45;;;;;;;27.75;4.25;;;;;;;15.65;62.24;100540.88;5079570;28;20162;-45
2023/03/30 07:32:10;;;;;;;23.70;3.78;;;;;;;15.52;62.52;100554.13;5084618;28;20028;-41
2023/03/30 07:34:35;;;;;;;31.92;5.10;;;;;;;15.37;63.72;100557.78;5081905;28;20028;-40
2023/03/30 07:37:01;;;;;;;29.08;5.00;;;;;;;14.78;65.58;100571.53;5078070;28;20105;-41
2023/03/30 07:39:27;;;;;;;28.30;4.53;;;;;;;15.03;65.09;100558.16;5082670;28;20028;-43
2023/03/30 07:41:53;;;;;;;34.53;4.50;;;;;;;15.23;65.28;100555.34;5077435;28;20051;-40
2023/03/30 07:44:18;;;;;;;29.80;4.50;;;;;;;15.28;64.61;100569.28;5080999;28;20090;-41
2023/03/30 07:46:44;;;;;;;24.95;4.10;;;;;;;15.58;64.22;100569.84;5077985;28;20393;-40
2023/03/30 07:49:09;;;;;;;32.40;5.20;;;;;;;15.33;65.61;100564.84;5084665;28;20039;-40
2023/03/30 07:51:35;;;;;;;28.92;5.00;;;;;;;14.77;67.12;100585.50;5085665;28;20097;-43
2023/03/30 07:54:00;;;;;;;26.50;4.60;;;;;;;14.92;66.60;100569.66;5081000;28;20535;-40
2023/03/30 07:56:25;;;;;;;30.75;5.05;;;;;;;15.34;65.18;100579.72;5085064;28;20039;-42
2023/03/30 07:58:51;;;;;;;27.33;4.15;;;;;;;14.93;66.52;100587.16;5081448;28;20039;-43
2023/03/30 08:01:17;;;;;;;35.10;4.80;;;;;;;15.04;66.53;100587.91;5086390;28;20036;-40
2023/03/30 08:03:43;;;;;;;28.13;4.18;;;;;;;15.46;64.75;100572.59;5082823;28;20444;-42
2023/03/30 08:06:10;;;;;;;33.80;5.00;;;;;;;15.35;65.62;100577.97;5085129;28;20104;-41
2023/03/30 08:08:37;;;;;;;32.38;4.85;;;;;;;15.27;65.39;100613.94;5084702;28;20024;-41
2023/03/30 08:11:04;;;;;;;31.50;4.80;;;;;;;15.79;64.21;100586.25;5089698;28;20047;-40
2023/03/30 08:13:31;;;;;;;28.63;4.50;;;;;;;15.18;65.60;100588.66;5084681;28;20028;-42
2023/03/30 08:15:57;;;;;;;27.25;4.25;;;;;;;15.80;64.56;100592.34;5081238;28;20114;-41
2023/03/30 08:18:22;;;;;;;36.05;4.97;;;;;;;15.50;64.70;100575.16;5085775;28;20067;-42
2023/03/30 08:20:51;;;;;;;28.30;4.68;;;;;;;15.65;63.80;100582.91;5081464;28;20081;-40
2023/03/30 08:23:17;;;;;;;31.92;4.57;;;;;;;15.86;63.88;100597.53;5087520;28;20039;-41
2023/03/30 08:25:44;;;;;;;34.15;5.60;;;;;;;15.76;63.62;100606.44;5083297;28;20119;-41
2023/03/30 08:28:10;;;;;;;33.50;4.70;;;;;;;16.17;62.72;100598.88;5087527;28;20028;-42
2023/03/30 08:30:35;;;;;;;31.98;4.15;;;;;;;16.31;62.21;100595.19;5084504;28;20038;-42
2023/03/30 08:33:00;;;;;;;30.13;5.13;;;;;;;15.91;62.20;100597.50;5086309;28;20031;-44
2023/03/30 08:35:26;;;;;;;30.65;4.75;;;;;;;15.97;62.60;100587.78;5088509;28;20060;-43
2023/03/30 08:37:52;;;;;;;37.17;5.35;;;;;;;15.49;64.65;100590.97;5083279;28;20545;-41
2023/03/30 08:40:19;;;;;;;30.67;5.20;;;;;;;15.55;63.96;100598.81;5089920;28;20079;-39
2023/03/30 08:43:09;;;;;;;33.05;4.88;;;;;;;16.01;62.82;100591.22;5090225;28;20036;-41
2023/03/30 08:45:39;;;;;;;30.45;5.55;;;;;;;15.87;62.89;100599.28;5082345;28;20361;-42
2023/03/30 08:48:14;;;;;;;40.15;4.70;;;;;;;16.01;62.11;100601.75;5083552;28;20028;-41
2023/03/30 08:50:44;;;;;;;35.80;4.65;;;;;;;16.10;61.95;100599.84;5082155;27;20383;-42
2023/03/30 08:53:11;;;;;;;30.67;4.93;;;;;;;15.96;61.67;100612.31;5087424;28;20486;-42
2023/03/30 08:55:36;;;;;;;30.33;4.32;;;;;;;16.29;60.86;100616.25;5083666;28;20101;-40
2023/03/30 08:58:20;;;;;;;25.35;4.55;;;;;;;16.27;60.83;100622.44;5088477;28;20489;-40
2023/03/30 09:00:48;;;;;;;30.88;4.85;;;;;;;15.73;61.58;100611.75;5083152;28;20047;-41
2023/03/30 09:03:22;;;;;;;31.23;4.88;;;;;;;15.80;61.17;100623.91;5087686;28;20055;-41
2023/03/30 09:05:54;;;;;;;36.87;5.37;;;;;;;15.44;62.36;100625.16;5082600;28;20047;-42
2023/03/30 09:08:27;;;;;;;29.90;4.63;;;;;;;15.77;60.82;100632.72;5085908;28;20270;-40
2023/03/30 09:10:57;;;;;;;24.40;4.53;;;;;;;16.37;59.63;100630.16;5081785;28;20050;-40
2023/03/30 09:13:27;;;;;;;31.38;5.00;;;;;;;16.47;58.50;100647.56;5085712;28;20378;-41
2023/03/30 09:15:56;;;;;;;32.47;4.78;;;;;;;15.93;59.45;100643.03;5080700;28;20107;-40
2023/03/30 09:18:31;;;;;;;43.67;5.85;;;;;;;15.69;60.55;100652.06;5084078;28;20063;-41
2023/03/30 09:20:59;;;;;;;36.40;5.50;;;;;;;15.39;61.63;100643.59;5079935;28;20044;-40
2023/03/30 09:23:28;;;;;;;34.88;5.10;;;;;;;15.35;62.20;100651.53;5083282;28;20055;-41
2023/03/30 09:26:05;;;;;;;35.95;5.28;;;;;;;15.61;61.57;100656.56;5079731;28;20039;-42
2023/03/30 09:28:40;;;;;;;39.25;5.40;;;;;;;15.79;61.14;100649.34;5083259;28;20031;-42
2023/03/30 09:31:31;;;;;;;39.33;4.95;;;;;;;16.04;60.69;100662.19;5079597;28;20046;-43
2023/03/30 09:34:05;;;;;;;28.73;5.10;;;;;;;16.22;60.11;100652.28;5079639;28;20453;-41
2023/03/30 09:36:36;;;;;;;36.15;4.85;;;;;;;16.24;60.22;100650.50;5083141;28;20047;-41
2023/03/30 09:39:08;;;;;;;33.83;5.63;;;;;;;15.90;60.79;100651.84;5079671;28;20035;-43
2023/03/30 09:42:21;;;;;;;36.97;5.38;;;;;;;16.12;59.95;100666.44;5080850;28;20032;-39
2023/03/30 09:45:05;;;;;;;32.13;4.90;;;;;;;15.34;61.65;100673.41;5061387;28;20093;-44
2023/03/30 09:47:36;;;;;;;34.35;5.15;;;;;;;15.90;60.61;100674.63;5092490;28;20028;-40
2023/03/30 09:50:09;;;;;;;33.75;5.40;;;;;;;16.14;59.83;100669.06;5089935;28;20047;-41
2023/03/30 09:52:37;;;;;;;31.33;4.53;;;;;;;16.28;58.91;100669.78;5088637;28;20024;-48
2023/03/30 09:55:17;;;;;;;31.92;5.20;;;;;;;16.06;59.35;100670.91;5079128;28;20055;-44
2023/03/30 09:57:42;;;;;;;30.38;5.65;;;;;;;15.87;59.67;100678.16;5082676;28;20035;-40
2023/03/30 10:00:32;;;;;;;36.05;5.03;;;;;;;16.64;58.04;100689.47;5091759;28;20042;-41
2023/03/30 10:03:04;;;;;;;27.80;4.38;;;;;;;16.54;57.67;100690.44;5087755;28;20032;-40
2023/03/30 10:05:32;;;;;;;31.77;4.60;;;;;;;16.39;57.67;100680.16;5087537;28;20138;-43
2023/03/30 10:08:00;;;;;;;32.75;4.93;;;;;;;16.43;58.56;100698.50;5059546;28;20098;-42
2023/03/30 10:10:25;;;;;;;33.38;4.53;;;;;;;16.35;58.65;100684.56;5061467;28;20054;-40
2023/03/30 10:12:54;;;;;;;32.97;4.75;;;;;;;15.76;59.71;100712.44;5058458;28;20037;-44
2023/03/30 10:15:22;;;;;;;34.38;5.15;;;;;;;16.46;58.72;100692.34;5062188;28;20272;-43
2023/03/30 10:17:51;;;;;;;36.05;4.60;;;;;;;16.03;59.28;100692.00;5059139;28;20542;-41
2023/03/30 10:20:25;;;;;;;28.65;4.55;;;;;;;15.96;60.04;100698.22;5067341;28;20040;-42
2023/03/30 10:22:58;;;;;;;37.78;4.97;;;;;;;16.46;58.59;100679.19;5061034;28;20032;-42
2023/03/30 10:25:28;;;;;;;29.50;4.97;;;;;;;16.34;58.81;100687.22;5065804;28;20031;-41
2023/03/30 10:27:56;;;;;;;42.15;5.45;;;;;;;16.28;60.28;100697.84;5062598;28;21809;-41
2023/03/30 10:30:25;;;;;;;32.15;5.10;;;;;;;16.10;60.02;100685.78;5048303;28;20029;-42
2023/03/30 10:32:53;;;;;;;34.03;5.22;;;;;;;15.98;60.64;100691.19;5044186;28;20074;-41
2023/03/30 10:35:23;;;;;;;38.17;5.07;;;;;;;15.83;60.34;100698.34;5045514;28;20505;-41
2023/03/30 10:37:51;;;;;;;29.48;4.43;;;;;;;15.84;60.79;100699.22;5039763;28;20513;-40
2023/03/30 10:40:35;;;;;;;31.60;4.40;;;;;;;16.08;59.79;100700.69;5043066;28;20040;-41
2023/03/30 10:43:02;;;;;;;32.17;4.40;;;;;;;15.85;60.57;100727.25;5042011;28;20039;-44
2023/03/30 10:45:38;;;;;;;39.35;5.47;;;;;;;15.64;61.22;100712.56;5043408;28;20108;-42
2023/03/30 10:48:27;;;;;;;39.85;5.30;;;;;;;15.94;61.04;100715.75;5038543;28;20086;-42
2023/03/30 10:51:11;;;;;;;29.55;4.90;;;;;;;15.86;60.85;100702.69;5037634;28;20033;-44
2023/03/30 10:53:46;;;;;;;33.35;5.40;;;;;;;15.69;61.25;100702.00;5038478;28;20044;-45
2023/03/30 10:56:16;;;;;;;27.33;4.30;;;;;;;16.20;60.49;100709.31;5048414;28;20100;-41
2023/03/30 10:59:16;;;;;;;29.73;4.88;;;;;;;16.13;60.45;100714.66;5062008;28;20032;-41
2023/03/30 11:02:02;;;;;;;30.35;5.28;;;;;;;16.70;58.66;100720.09;5060540;28;20068;-43
2023/03/30 11:04:35;;;;;;;32.10;4.97;;;;;;;15.99;60.79;100714.81;5077503;28;20117;-43
2023/03/30 11:07:04;;;;;;;30.58;4.43;;;;;;;16.45;59.51;100711.63;5069442;28;20171;-42
2023/03/30 11:09:34;;;;;;;29.00;4.78;;;;;;;15.81;61.06;100717.63;5075817;28;20387;-40
2023/03/30 11:12:18;;;;;;;33.00;4.28;;;;;;;16.11;60.41;100713.78;5069572;28;20043;-46
2023/03/30 11:15:30;;;;;;;34.35;5.22;;;;;;;15.59;61.78;100719.63;5073941;28;20031;-40
2023/03/30 11:18:04;;;;;;;30.95;4.22;;;;;;;16.45;60.02;100724.78;5076788;28;20032;-41
2023/03/30 11:20:41;;;;;;;33.45;4.30;;;;;;;15.90;60.82;100724.56;5081247;28;20047;-40
2023/03/30 11:23:20;;;;;;;27.13;4.38;;;;;;;15.80;61.97;100729.91;5077692;28;20085;-43
2023/03/30 11:25:57;;;;;;;34.00;5.65;;;;;;;15.79;61.74;100722.94;5077900;28;20040;-41
2023/03/30 11:28:49;;;;;;;34.55;4.60;;;;;;;16.09;61.32;100729.63;5080727;28;20502;-45
2023/03/30 11:31:32;;;;;;;39.30;5.90;;;;;;;15.94;61.58;100734.16;5078747;28;20032;-42
2023/03/30 11:34:52;;;;;;;35.28;5.15;;;;;;;15.44;63.58;100722.34;5079609;28;20035;-40